createdAt,value
2022-08-03T00:01:38.421Z,22.21
2022-08-03T00:04:06.882Z,22.21
2022-08-03T00:06:37.106Z,22.19
2022-08-03T00:09:07.974Z,22.12
2022-08-03T00:11:35.488Z,22.09
2022-08-03T00:14:03.287Z,22.05
2022-08-03T00:16:30.627Z,22.03
2022-08-03T00:18:57.885Z,22.04
2022-08-03T00:21:28.454Z,22.04
2022-08-03T00:23:55.640Z,22.05
2022-08-03T00:26:22.767Z,22.04
2022-08-03T00:28:50.949Z,22.05
2022-08-03T00:31:24.236Z,22.01
2022-08-03T00:34:05.984Z,21.99
2022-08-03T00:36:34.100Z,21.99
2022-08-03T00:39:01.580Z,21.95
2022-08-03T00:41:28.633Z,21.92
2022-08-03T00:43:55.662Z,21.89
2022-08-03T00:46:22.983Z,21.87
2022-08-03T00:48:50.803Z,21.84
2022-08-03T00:51:19.241Z,21.85
2022-08-03T00:53:46.458Z,21.86
2022-08-03T00:56:15.568Z,21.86
2022-08-03T00:58:45.423Z,21.84
2022-08-03T01:01:13.034Z,21.84
2022-08-03T01:03:41.068Z,21.86
2022-08-03T01:06:18.378Z,21.85
2022-08-03T01:08:57.543Z,21.85
2022-08-03T01:11:59.809Z,21.82
2022-08-03T01:14:39.550Z,21.82
2022-08-03T01:17:22.771Z,21.76
2022-08-03T01:19:49.819Z,21.73
2022-08-03T01:22:53.959Z,21.71
2022-08-03T01:25:57.981Z,21.65
2022-08-03T01:29:09.226Z,21.60
2022-08-03T01:32:53.251Z,21.56
2022-08-03T01:34:40.557Z,21.44
2022-08-03T01:37:10.408Z,21.39
2022-08-03T01:39:39.929Z,21.39
2022-08-03T01:42:10.623Z,21.41
2022-08-03T01:44:40.643Z,21.40
2022-08-03T01:47:08.864Z,21.40
2022-08-03T01:49:45.611Z,21.41
2022-08-03T01:52:14.974Z,21.42
2022-08-03T01:54:45.023Z,21.44
2022-08-03T01:57:13.573Z,21.44
2022-08-03T01:59:42.531Z,21.43
2022-08-03T02:02:32.813Z,21.41
2022-08-03T02:05:03.739Z,21.40
2022-08-03T02:07:32.768Z,21.40
2022-08-03T02:10:04.152Z,21.38
2022-08-03T02:12:37.981Z,21.33
2022-08-03T02:15:10.030Z,21.32
2022-08-03T02:17:40.311Z,21.31
2022-08-03T02:20:11.965Z,21.34
2022-08-03T02:22:43.522Z,21.35
2022-08-03T02:25:13.074Z,21.33
2022-08-03T02:27:44.375Z,21.31
2022-08-03T02:30:13.657Z,21.29
2022-08-03T02:32:42.980Z,21.26
2022-08-03T02:35:18.028Z,21.26
2022-08-03T02:37:49.928Z,21.27
2022-08-03T02:40:19.511Z,21.27
2022-08-03T02:42:50.200Z,21.27
2022-08-03T02:45:20.644Z,21.28
2022-08-03T02:47:53.994Z,21.29
2022-08-03T02:50:23.603Z,21.32
2022-08-03T02:52:52.555Z,21.29
2022-08-03T02:55:22.843Z,21.31
2022-08-03T02:57:51.422Z,21.36
2022-08-03T03:00:27.110Z,21.36
2022-08-03T03:02:58.726Z,21.38
2022-08-03T03:05:54.740Z,21.40
2022-08-03T03:08:28.849Z,21.41
2022-08-03T03:10:59.948Z,21.40
2022-08-03T03:13:29.286Z,21.43
2022-08-03T03:16:00.773Z,21.43
2022-08-03T03:18:35.235Z,21.43
2022-08-03T03:21:03.854Z,21.42
2022-08-03T03:23:32.353Z,21.41
2022-08-03T03:26:02.501Z,21.39
2022-08-03T03:28:30.798Z,21.39
2022-08-03T03:30:58.847Z,21.40
2022-08-03T03:33:28.238Z,21.41
2022-08-03T03:35:56.465Z,21.42
2022-08-03T03:38:23.440Z,21.43
2022-08-03T03:40:50.502Z,21.43
2022-08-03T03:43:19.001Z,21.38
2022-08-03T03:45:47.720Z,21.35
2022-08-03T03:48:15.275Z,21.31
2022-08-03T03:50:44.205Z,21.30
2022-08-03T03:53:12.202Z,21.33
2022-08-03T03:55:58.900Z,21.39
2022-08-03T03:58:27.396Z,21.39
2022-08-03T04:00:54.425Z,21.36
2022-08-03T04:03:21.373Z,21.33
2022-08-03T04:06:07.311Z,21.27
2022-08-03T04:08:52.949Z,21.27
2022-08-03T04:11:58.807Z,21.31
2022-08-03T04:14:35.605Z,21.31
2022-08-03T04:17:05.992Z,21.30
2022-08-03T04:19:45.443Z,21.32
2022-08-03T04:22:15.431Z,21.34
2022-08-03T04:24:49.864Z,21.38
2022-08-03T04:27:21.231Z,21.41
2022-08-03T04:29:52.224Z,21.46
2022-08-03T04:32:20.810Z,21.50
2022-08-03T04:34:48.098Z,21.50
2022-08-03T04:37:38.098Z,21.52
2022-08-03T04:40:09.627Z,21.53
2022-08-03T04:42:39.448Z,21.53
2022-08-03T04:45:08.515Z,21.51
2022-08-03T04:47:36.592Z,21.48
2022-08-03T04:50:09.144Z,21.48
2022-08-03T04:52:39.758Z,21.49
2022-08-03T04:55:07.222Z,21.52
2022-08-03T04:57:34.130Z,21.55
2022-08-03T05:00:03.628Z,21.56
2022-08-03T05:02:32.168Z,21.54
2022-08-03T05:05:00.110Z,21.51
2022-08-03T05:07:35.508Z,21.51
2022-08-03T05:10:15.147Z,21.52
2022-08-03T05:12:55.780Z,21.50
2022-08-03T05:15:22.795Z,21.43
2022-08-03T05:17:49.674Z,21.38
2022-08-03T05:20:16.684Z,21.31
2022-08-03T05:22:52.603Z,21.29
2022-08-03T05:25:22.245Z,21.30
2022-08-03T05:27:51.315Z,21.36
2022-08-03T05:30:29.722Z,21.38
2022-08-03T05:33:00.326Z,21.40
2022-08-03T05:36:01.319Z,21.41
2022-08-03T05:38:24.162Z,21.43
2022-08-03T05:41:22.066Z,21.47
2022-08-03T05:43:45.094Z,21.48
2022-08-03T05:46:13.166Z,21.48
2022-08-03T05:48:40.684Z,21.43
2022-08-03T05:51:07.925Z,21.43
2022-08-03T05:53:35.439Z,21.42
2022-08-03T05:56:13.211Z,21.44
2022-08-03T05:58:47.194Z,21.46
2022-08-03T06:01:15.703Z,21.48
2022-08-03T06:03:42.832Z,21.50
2022-08-03T06:06:09.911Z,21.52
2022-08-03T06:08:36.984Z,21.55
2022-08-03T06:11:04.376Z,21.56
2022-08-03T06:13:31.444Z,21.56
2022-08-03T06:15:58.501Z,21.58
2022-08-03T06:18:25.438Z,21.58
2022-08-03T06:20:53.090Z,21.58
2022-08-03T06:23:20.560Z,21.57
2022-08-03T06:25:47.884Z,21.59
2022-08-03T06:28:42.623Z,21.58
2022-08-03T06:31:02.761Z,21.58
2022-08-03T06:33:48.450Z,21.62
2022-08-03T06:36:16.775Z,21.61
2022-08-03T06:38:43.639Z,21.60
2022-08-03T06:41:10.504Z,21.61
2022-08-03T06:44:02.503Z,21.63
2022-08-03T06:46:24.679Z,21.63
2022-08-03T06:48:53.524Z,21.65
2022-08-03T06:51:20.420Z,21.70
2022-08-03T06:53:47.254Z,21.71
2022-08-03T06:56:14.087Z,21.75
2022-08-03T06:58:41.004Z,21.78
2022-08-03T07:01:07.863Z,21.78
2022-08-03T07:03:34.685Z,21.75
2022-08-03T07:06:02.537Z,21.75
2022-08-03T07:08:33.698Z,21.77
2022-08-03T07:11:01.398Z,21.79
2022-08-03T07:13:28.217Z,21.83
2022-08-03T07:15:56.310Z,21.86
2022-08-03T07:18:29.406Z,21.90
2022-08-03T07:20:57.054Z,21.88
2022-08-03T07:23:24.041Z,21.90
2022-08-03T07:25:51.096Z,21.93
2022-08-03T07:28:18.293Z,21.97
2022-08-03T07:30:45.220Z,22.02
2022-08-03T07:33:12.076Z,22.01
2022-08-03T07:35:39.439Z,22.02
2022-08-03T07:38:06.240Z,22.05
2022-08-03T07:40:33.082Z,22.09
2022-08-03T07:43:00.342Z,22.11
2022-08-03T07:45:27.193Z,22.14
2022-08-03T07:47:54.649Z,22.15
2022-08-03T07:50:22.659Z,22.17
2022-08-03T07:52:54.270Z,22.25
2022-08-03T07:55:23.284Z,22.28
2022-08-03T07:58:23.984Z,22.29
2022-08-03T08:00:53.316Z,22.31
2022-08-03T08:03:22.054Z,22.34
2022-08-03T08:05:49.600Z,22.37
2022-08-03T08:08:16.442Z,22.41
2022-08-03T08:10:58.279Z,22.44
2022-08-03T08:13:25.686Z,22.47
2022-08-03T08:15:52.460Z,22.48
2022-08-03T08:18:19.293Z,22.46
2022-08-03T08:20:46.387Z,22.46
2022-08-03T08:23:40.834Z,22.51
2022-08-03T08:25:59.935Z,22.52
2022-08-03T08:28:30.237Z,22.55
2022-08-03T08:31:00.511Z,22.56
2022-08-03T08:33:37.335Z,22.58
2022-08-03T08:36:15.594Z,22.63
2022-08-03T08:38:44.736Z,22.65
2022-08-03T08:41:13.106Z,22.67
2022-08-03T08:43:40.101Z,22.68
2022-08-03T08:46:08.679Z,22.67
2022-08-03T08:48:40.822Z,22.68
2022-08-03T08:51:09.829Z,22.72
2022-08-03T08:53:38.583Z,22.74
2022-08-03T08:56:07.529Z,22.78
2022-08-03T08:58:38.645Z,22.82
2022-08-03T09:01:06.199Z,22.81
2022-08-03T09:03:34.537Z,22.82
2022-08-03T09:06:02.477Z,22.84
2022-08-03T09:08:30.891Z,22.86
2022-08-03T09:10:58.435Z,22.88
2022-08-03T09:13:25.526Z,22.90
2022-08-03T09:16:12.327Z,22.99
2022-08-03T09:18:39.886Z,23.00
2022-08-03T09:21:31.259Z,23.09
2022-08-03T09:24:02.790Z,23.16
2022-08-03T09:26:31.792Z,23.21
2022-08-03T09:29:07.121Z,23.24
2022-08-03T09:31:44.184Z,23.27
2022-08-03T09:34:13.919Z,23.29
2022-08-03T09:36:51.713Z,23.31
2022-08-03T09:39:37.481Z,23.30
2022-08-03T09:42:09.772Z,23.32
2022-08-03T09:44:39.066Z,23.31
2022-08-03T09:47:06.668Z,23.33
2022-08-03T09:49:33.623Z,23.33
2022-08-03T09:52:38.179Z,23.34
2022-08-03T09:55:08.036Z,23.35
2022-08-03T09:58:10.799Z,23.36
2022-08-03T10:01:24.154Z,23.39
2022-08-03T10:04:03.803Z,23.42
2022-08-03T10:06:31.611Z,23.41
2022-08-03T10:09:16.309Z,23.41
2022-08-03T10:11:44.761Z,23.43
2022-08-03T10:14:19.612Z,23.47
2022-08-03T10:16:47.940Z,23.50
2022-08-03T10:19:15.830Z,23.52
2022-08-03T10:21:49.718Z,23.53
2022-08-03T10:24:21.302Z,23.55
2022-08-03T10:26:50.374Z,23.59
2022-08-03T10:29:25.395Z,23.64
2022-08-03T10:31:58.156Z,23.68
2022-08-03T10:34:29.383Z,23.70
2022-08-03T10:37:00.311Z,23.76
2022-08-03T10:39:30.923Z,23.83
2022-08-03T10:41:59.935Z,23.91
2022-08-03T10:44:36.441Z,23.96
2022-08-03T10:47:05.163Z,24.01
2022-08-03T10:49:34.596Z,24.03
2022-08-03T10:52:13.331Z,24.06
2022-08-03T10:55:10.878Z,24.09
2022-08-03T10:57:58.860Z,24.14
2022-08-03T11:00:28.656Z,24.18
2022-08-03T11:03:03.367Z,24.23
2022-08-03T11:05:35.992Z,24.27
2022-08-03T11:08:35.061Z,24.34
2022-08-03T11:11:17.264Z,24.40
2022-08-03T11:14:08.271Z,24.44
2022-08-03T11:16:37.390Z,24.48
2022-08-03T11:19:07.829Z,24.53
2022-08-03T11:21:52.890Z,24.56
2022-08-03T11:24:39.408Z,24.58
2022-08-03T11:27:15.771Z,24.60
2022-08-03T11:29:57.692Z,24.63
2022-08-03T11:33:00.281Z,24.68
2022-08-03T11:35:33.823Z,24.73
2022-08-03T11:38:04.817Z,24.74
2022-08-03T11:40:48.590Z,24.72
2022-08-03T11:43:31.281Z,24.71
2022-08-03T11:46:13.851Z,24.67
2022-08-03T11:49:09.499Z,24.66
2022-08-03T11:51:38.932Z,24.64
2022-08-03T11:54:07.021Z,24.66
2022-08-03T11:56:48.839Z,24.69
2022-08-03T11:59:21.875Z,24.75
2022-08-03T12:01:50.099Z,24.79
2022-08-03T12:04:16.918Z,24.85
2022-08-03T12:06:59.464Z,24.89
2022-08-03T12:09:26.269Z,24.92
2022-08-03T12:11:58.438Z,24.96
2022-08-03T12:14:48.519Z,24.99
2022-08-03T12:17:16.745Z,25.03
2022-08-03T12:19:44.127Z,25.06
2022-08-03T12:22:10.919Z,25.09
2022-08-03T12:24:42.892Z,25.11
2022-08-03T12:27:09.755Z,25.16
2022-08-03T12:29:37.599Z,25.18
2022-08-03T12:32:04.728Z,25.24
2022-08-03T12:34:50.619Z,25.29
2022-08-03T12:37:23.866Z,25.35
2022-08-03T12:40:02.698Z,25.41
2022-08-03T12:42:37.801Z,25.53
2022-08-03T12:45:25.235Z,25.63
2022-08-03T12:48:02.150Z,25.71
2022-08-03T12:50:34.831Z,25.79
2022-08-03T12:53:08.016Z,25.87
2022-08-03T12:55:57.154Z,25.94
2022-08-03T12:58:35.243Z,26.05
2022-08-03T13:01:09.457Z,26.12
2022-08-03T13:03:50.031Z,26.13
2022-08-03T13:06:22.564Z,26.16
2022-08-03T13:08:51.519Z,26.14
2022-08-03T13:11:23.526Z,26.11
2022-08-03T13:14:16.744Z,26.08
2022-08-03T13:16:46.849Z,26.04
2022-08-03T13:19:15.900Z,26.02
2022-08-03T13:21:53.739Z,26.00
2022-08-03T13:24:31.467Z,25.96
2022-08-03T13:26:59.473Z,25.99
2022-08-03T13:29:26.361Z,26.05
2022-08-03T13:31:53.269Z,26.10
2022-08-03T13:34:23.470Z,26.10
2022-08-03T13:37:11.398Z,26.11
2022-08-03T13:39:58.130Z,26.13
2022-08-03T13:42:28.076Z,26.20
2022-08-03T13:44:56.050Z,26.26
2022-08-03T13:47:23.120Z,26.29
2022-08-03T13:49:59.803Z,26.32
2022-08-03T13:52:33.123Z,26.36
2022-08-03T13:55:01.054Z,26.36
2022-08-03T13:58:03.233Z,26.38
2022-08-03T14:00:28.141Z,26.39
2022-08-03T14:03:13.683Z,26.47
2022-08-03T14:05:41.998Z,26.55
2022-08-03T14:08:09.284Z,26.59
2022-08-03T14:10:38.338Z,26.61
2022-08-03T14:13:05.928Z,26.65
2022-08-03T14:15:37.599Z,26.66
2022-08-03T14:18:06.928Z,26.69
2022-08-03T14:20:38.649Z,26.71
2022-08-03T14:23:14.385Z,26.72
2022-08-03T14:25:49.918Z,26.72
2022-08-03T14:28:18.607Z,26.72
2022-08-03T14:30:45.914Z,26.70
2022-08-03T14:33:12.716Z,26.68
2022-08-03T14:35:39.765Z,26.70
2022-08-03T14:38:06.740Z,26.73
2022-08-03T14:40:33.759Z,26.76
2022-08-03T14:43:04.223Z,26.81
2022-08-03T14:45:31.319Z,26.86
2022-08-03T14:50:27.867Z,26.86
2022-08-03T14:50:51.504Z,26.86
2022-08-03T14:53:19.834Z,26.86
2022-08-03T14:55:50.520Z,26.91
2022-08-03T14:58:22.712Z,26.97
2022-08-03T15:00:51.314Z,26.99
2022-08-03T15:03:25.907Z,27.00
2022-08-03T15:05:53.881Z,27.02
2022-08-03T15:08:21.660Z,27.01
2022-08-03T15:10:49.525Z,26.97
2022-08-03T15:13:17.141Z,26.97
2022-08-03T15:15:44.071Z,26.95
2022-08-03T15:18:11.371Z,26.97
2022-08-03T15:20:46.999Z,27.00
2022-08-03T15:23:15.960Z,26.96
2022-08-03T15:26:29.395Z,26.94
2022-08-03T15:28:31.188Z,26.90
2022-08-03T15:30:58.042Z,26.86
2022-08-03T15:33:25.603Z,26.84
2022-08-03T15:35:53.351Z,26.81
2022-08-03T15:38:26.265Z,26.82
2022-08-03T15:40:59.206Z,26.83
2022-08-03T15:43:26.261Z,26.83
2022-08-03T15:48:41.045Z,26.85
2022-08-03T15:51:08.512Z,26.86
2022-08-03T15:53:35.857Z,26.87
2022-08-03T15:56:10.660Z,26.88
2022-08-03T15:59:04.552Z,26.87
2022-08-03T16:01:28.042Z,26.86
2022-08-03T16:03:55.335Z,26.87
2022-08-03T16:06:34.634Z,26.90
2022-08-03T16:09:03.358Z,26.89
2022-08-03T16:11:30.741Z,26.90
2022-08-03T16:14:12.963Z,26.90
2022-08-03T16:16:44.385Z,26.82
2022-08-03T16:19:11.317Z,26.80
2022-08-03T16:21:40.310Z,26.76
2022-08-03T16:24:17.558Z,26.72
2022-08-03T16:26:54.909Z,26.68
2022-08-03T16:29:22.675Z,26.63
2022-08-03T16:31:50.850Z,26.58
2022-08-03T16:34:18.423Z,26.57
2022-08-03T16:36:45.991Z,26.53
2022-08-03T16:39:12.947Z,26.47
2022-08-03T16:42:00.642Z,26.44
2022-08-03T16:44:27.520Z,26.44
2022-08-03T16:46:55.274Z,26.43
2022-08-03T16:49:54.806Z,26.44
2022-08-03T16:52:09.163Z,26.43
2022-08-03T16:54:39.751Z,26.43
2022-08-03T16:57:07.558Z,26.42
2022-08-03T16:59:36.377Z,26.39
2022-08-03T17:02:12.696Z,26.41
2022-08-03T17:04:40.192Z,26.41
2022-08-03T17:07:08.855Z,26.40
2022-08-03T17:09:38.632Z,26.37
2022-08-03T17:12:07.217Z,26.35
2022-08-03T17:14:34.066Z,26.32
2022-08-03T17:17:03.948Z,26.32
2022-08-03T17:19:32.625Z,26.30
2022-08-03T17:22:09.241Z,26.28
2022-08-03T17:24:42.257Z,26.28
2022-08-03T17:28:41.969Z,26.27
2022-08-03T17:30:08.466Z,26.26
2022-08-03T17:32:42.244Z,26.25
2022-08-03T17:35:10.366Z,26.24
2022-08-03T17:37:57.405Z,26.23
2022-08-03T17:40:24.678Z,26.24
2022-08-03T17:42:55.485Z,26.24
2022-08-03T17:45:22.414Z,26.25
2022-08-03T17:47:57.068Z,26.26
2022-08-03T17:50:33.458Z,26.28
2022-08-03T17:53:07.682Z,26.29
2022-08-03T17:55:57.092Z,26.29
2022-08-03T17:58:53.819Z,26.28
2022-08-03T18:02:08.935Z,26.23
2022-08-03T18:04:55.478Z,26.20
2022-08-03T18:07:41.243Z,26.15
2022-08-03T18:10:11.470Z,26.12
2022-08-03T18:13:19.314Z,26.09
2022-08-03T18:15:59.374Z,26.04
2022-08-03T18:18:38.643Z,26.00
2022-08-03T18:21:09.346Z,25.96
2022-08-03T18:23:45.003Z,25.95
2022-08-03T18:26:17.084Z,25.93
2022-08-03T18:28:45.141Z,25.90
2022-08-03T18:31:33.148Z,25.89
2022-08-03T18:34:16.432Z,25.87
2022-08-03T18:36:52.728Z,25.87
2022-08-03T18:39:22.962Z,25.86
2022-08-03T18:41:49.756Z,25.84
2022-08-03T18:44:37.622Z,25.81
2022-08-03T18:47:27.977Z,25.76
2022-08-03T18:50:31.018Z,25.71
2022-08-03T18:54:02.910Z,25.66
2022-08-03T18:56:20.762Z,25.63
2022-08-03T19:02:00.004Z,25.54
2022-08-03T19:04:34.128Z,25.49
2022-08-03T19:07:11.103Z,25.45
2022-08-03T19:09:48.431Z,25.41
2022-08-03T19:12:33.832Z,25.39
2022-08-03T19:15:12.505Z,25.38
2022-08-03T19:20:35.119Z,25.33
2022-08-03T19:23:02.116Z,25.31
2022-08-03T19:25:35.349Z,25.30
2022-08-03T19:28:05.850Z,25.26
2022-08-03T19:30:40.225Z,25.24
2022-08-03T19:33:11.031Z,25.24
2022-08-03T19:35:55.129Z,25.22
2022-08-03T19:38:29.254Z,25.20
2022-08-03T19:41:04.213Z,25.17
2022-08-03T19:43:53.933Z,25.13
2022-08-03T19:46:30.833Z,25.09
2022-08-03T19:49:14.999Z,25.08
2022-08-03T19:51:58.561Z,25.08
2022-08-03T19:54:53.149Z,25.07
2022-08-03T19:57:27.523Z,25.02
2022-08-03T19:59:56.234Z,25.00
2022-08-03T20:02:26.695Z,24.98
2022-08-03T20:04:57.670Z,24.95
2022-08-03T20:07:27.421Z,24.95
2022-08-03T20:09:56.676Z,24.94
2022-08-03T20:12:52.572Z,24.92
2022-08-03T20:15:31.229Z,24.89
2022-08-03T20:17:59.485Z,24.84
2022-08-03T20:20:33.985Z,24.81
2022-08-03T20:23:06.822Z,24.79
2022-08-03T20:25:48.847Z,24.80
2022-08-03T20:28:29.257Z,24.79
2022-08-03T20:30:56.747Z,24.78
2022-08-03T20:33:27.919Z,24.75
2022-08-03T20:36:10.585Z,24.77
2022-08-03T20:38:43.746Z,24.77
2022-08-03T20:41:14.481Z,24.77
2022-08-03T20:43:42.039Z,24.74
2022-08-03T20:46:32.056Z,24.73
2022-08-03T20:48:58.998Z,24.70
2022-08-03T20:51:49.793Z,24.68
2022-08-03T20:54:20.891Z,24.65
2022-08-03T20:56:58.123Z,24.65
2022-08-03T20:59:30.470Z,24.63
2022-08-03T21:02:00.440Z,24.61
2022-08-03T21:04:28.846Z,24.61
2022-08-03T21:07:02.694Z,24.59
2022-08-03T21:09:53.113Z,24.58
2022-08-03T21:12:53.361Z,24.54
2022-08-03T21:13:00.963Z,25.58
2022-08-03T21:13:11.012Z,25.35
2022-08-03T21:16:03.196Z,24.46
2022-08-03T21:18:28.153Z,24.38
2022-08-03T21:20:57.059Z,24.34
2022-08-03T21:23:39.744Z,24.31
2022-08-03T21:26:13.166Z,24.32
2022-08-03T21:28:40.352Z,24.32
2022-08-03T21:31:08.105Z,24.30
2022-08-03T21:33:35.941Z,24.29
2022-08-03T21:36:02.840Z,24.27
2022-08-03T21:38:30.862Z,24.24
2022-08-03T21:40:57.660Z,24.23
2022-08-03T21:43:24.806Z,24.20
2022-08-03T21:46:05.863Z,24.16
2022-08-03T21:48:41.128Z,24.15
2022-08-03T21:51:09.625Z,24.14
2022-08-03T21:54:02.475Z,24.12
2022-08-03T21:56:28.120Z,24.08
2022-08-03T21:59:00.070Z,24.03
2022-08-03T22:01:28.663Z,24.03
2022-08-03T22:04:05.582Z,24.02
2022-08-03T22:06:34.770Z,24.03
2022-08-03T22:09:01.766Z,24.03
2022-08-03T22:11:28.709Z,24.02
2022-08-03T22:13:55.499Z,24.00
2022-08-03T22:16:22.338Z,23.99
2022-08-03T22:18:49.286Z,23.99
2022-08-03T22:21:17.181Z,23.97
2022-08-03T22:23:58.627Z,23.96
2022-08-03T22:26:34.720Z,23.92
2022-08-03T22:29:06.844Z,23.89
2022-08-03T22:31:58.044Z,23.85
2022-08-03T22:34:26.521Z,23.81
2022-08-03T22:36:57.311Z,23.74
2022-08-03T22:39:29.068Z,23.68
2022-08-03T22:41:59.164Z,23.61
2022-08-03T22:44:27.446Z,23.56
2022-08-03T22:46:55.624Z,23.55
2022-08-03T22:49:22.926Z,23.53
2022-08-03T22:51:52.299Z,23.47
2022-08-03T22:54:19.239Z,23.44
2022-08-03T22:56:50.657Z,23.38
2022-08-03T22:59:40.633Z,23.34
2022-08-03T23:02:20.420Z,23.33
2022-08-03T23:04:55.113Z,23.32
2022-08-03T23:07:30.082Z,23.30
2022-08-03T23:09:58.061Z,23.27
2022-08-03T23:12:25.638Z,23.23
2022-08-03T23:14:56.138Z,23.20
2022-08-03T23:17:24.445Z,23.18
2022-08-03T23:19:53.797Z,23.20
2022-08-03T23:22:30.033Z,23.15
2022-08-03T23:24:59.153Z,23.10
2022-08-03T23:27:28.007Z,23.06
2022-08-03T23:29:57.701Z,23.01
2022-08-03T23:32:29.814Z,22.96
2022-08-03T23:35:18.368Z,22.92
2022-08-03T23:38:04.257Z,22.89
2022-08-03T23:40:34.082Z,22.88
2022-08-03T23:43:02.969Z,22.90
2022-08-03T23:45:34.830Z,22.87
2022-08-03T23:48:01.655Z,22.83
2022-08-03T23:50:35.139Z,22.79
2022-08-03T23:53:23.616Z,22.77
2022-08-03T23:56:10.267Z,22.72
2022-08-03T23:59:06.980Z,22.72
